sensor_id;sensor_type;location;lat;lon;timestamp;temperature;humidity
14850;DHT22;7517;48.400;11.770;2022-09-25T00:00:52;17.70;80.70
14850;DHT22;7517;48.400;11.770;2022-09-25T00:03:22;17.70;80.60
14850;DHT22;7517;48.400;11.770;2022-09-25T00:05:51;17.70;80.50
14850;DHT22;7517;48.400;11.770;2022-09-25T00:08:28;17.70;80.50
14850;DHT22;7517;48.400;11.770;2022-09-25T00:10:56;17.70;80.50
14850;DHT22;7517;48.400;11.770;2022-09-25T00:13:25;17.70;80.50
14850;DHT22;7517;48.400;11.770;2022-09-25T00:15:54;17.70;80.60
14850;DHT22;7517;48.400;11.770;2022-09-25T00:18:24;17.70;80.50
14850;DHT22;7517;48.400;11.770;2022-09-25T00:21:12;17.70;80.50
14850;DHT22;7517;48.400;11.770;2022-09-25T00:23:41;17.70;80.50
14850;DHT22;7517;48.400;11.770;2022-09-25T00:26:10;17.70;80.50
14850;DHT22;7517;48.400;11.770;2022-09-25T00:28:40;17.70;80.40
14850;DHT22;7517;48.400;11.770;2022-09-25T00:31:09;17.70;80.50
14850;DHT22;7517;48.400;11.770;2022-09-25T00:33:37;17.60;80.20
14850;DHT22;7517;48.400;11.770;2022-09-25T00:36:06;17.70;80.20
14850;DHT22;7517;48.400;11.770;2022-09-25T00:38:36;17.70;80.20
14850;DHT22;7517;48.400;11.770;2022-09-25T00:41:09;17.60;80.00
14850;DHT22;7517;48.400;11.770;2022-09-25T00:43:43;17.60;79.90
14850;DHT22;7517;48.400;11.770;2022-09-25T00:46:16;17.60;79.80
14850;DHT22;7517;48.400;11.770;2022-09-25T00:48:49;17.60;79.90
14850;DHT22;7517;48.400;11.770;2022-09-25T00:51:24;17.60;79.90
14850;DHT22;7517;48.400;11.770;2022-09-25T00:53:58;17.60;79.90
14850;DHT22;7517;48.400;11.770;2022-09-25T00:56:33;17.60;80.00
14850;DHT22;7517;48.400;11.770;2022-09-25T00:59:05;17.60;80.00
14850;DHT22;7517;48.400;11.770;2022-09-25T01:01:46;17.50;80.00
14850;DHT22;7517;48.400;11.770;2022-09-25T01:04:14;17.50;80.00
14850;DHT22;7517;48.400;11.770;2022-09-25T01:06:43;17.50;80.10
14850;DHT22;7517;48.400;11.770;2022-09-25T01:09:10;17.50;80.10
14850;DHT22;7517;48.400;11.770;2022-09-25T01:11:41;17.50;80.10
14850;DHT22;7517;48.400;11.770;2022-09-25T01:14:11;17.50;80.20
14850;DHT22;7517;48.400;11.770;2022-09-25T01:16:46;17.50;80.20
14850;DHT22;7517;48.400;11.770;2022-09-25T01:19:31;17.50;80.30
14850;DHT22;7517;48.400;11.770;2022-09-25T01:22:14;17.50;80.50
14850;DHT22;7517;48.400;11.770;2022-09-25T01:25:01;17.50;80.30
14850;DHT22;7517;48.400;11.770;2022-09-25T01:27:48;17.50;80.40
14850;DHT22;7517;48.400;11.770;2022-09-25T01:30:35;17.50;80.40
14850;DHT22;7517;48.400;11.770;2022-09-25T01:33:11;17.50;80.40
14850;DHT22;7517;48.400;11.770;2022-09-25T01:35:47;17.50;80.50
14850;DHT22;7517;48.400;11.770;2022-09-25T01:38:28;17.60;80.60
14850;DHT22;7517;48.400;11.770;2022-09-25T01:41:08;17.60;81.40
14850;DHT22;7517;48.400;11.770;2022-09-25T01:43:43;17.60;80.60
14850;DHT22;7517;48.400;11.770;2022-09-25T01:46:28;17.60;80.60
14850;DHT22;7517;48.400;11.770;2022-09-25T01:49:04;17.60;80.60
14850;DHT22;7517;48.400;11.770;2022-09-25T01:51:39;17.60;80.50
14850;DHT22;7517;48.400;11.770;2022-09-25T01:54:10;17.60;80.40
14850;DHT22;7517;48.400;11.770;2022-09-25T01:56:47;17.60;80.30
14850;DHT22;7517;48.400;11.770;2022-09-25T01:59:23;17.60;80.30
14850;DHT22;7517;48.400;11.770;2022-09-25T02:01:58;17.60;80.40
14850;DHT22;7517;48.400;11.770;2022-09-25T02:04:31;17.60;80.40
14850;DHT22;7517;48.400;11.770;2022-09-25T02:07:07;17.60;80.50
14850;DHT22;7517;48.400;11.770;2022-09-25T02:09:39;17.60;80.40
14850;DHT22;7517;48.400;11.770;2022-09-25T02:12:13;17.70;80.50
14850;DHT22;7517;48.400;11.770;2022-09-25T02:14:46;17.70;80.50
14850;DHT22;7517;48.400;11.770;2022-09-25T02:17:21;17.70;80.50
14850;DHT22;7517;48.400;11.770;2022-09-25T02:20:12;17.70;80.50
14850;DHT22;7517;48.400;11.770;2022-09-25T02:23:04;17.70;80.40
14850;DHT22;7517;48.400;11.770;2022-09-25T02:25:37;17.70;80.40
14850;DHT22;7517;48.400;11.770;2022-09-25T02:28:08;17.70;80.40
14850;DHT22;7517;48.400;11.770;2022-09-25T02:30:35;17.70;80.30
14850;DHT22;7517;48.400;11.770;2022-09-25T02:33:03;17.70;80.30
14850;DHT22;7517;48.400;11.770;2022-09-25T02:35:31;17.70;80.20
14850;DHT22;7517;48.400;11.770;2022-09-25T02:37:59;17.70;80.30
14850;DHT22;7517;48.400;11.770;2022-09-25T02:40:33;17.70;80.20
14850;DHT22;7517;48.400;11.770;2022-09-25T02:43:13;17.70;80.20
14850;DHT22;7517;48.400;11.770;2022-09-25T02:45:53;17.70;80.20
14850;DHT22;7517;48.400;11.770;2022-09-25T02:48:35;17.70;80.10
14850;DHT22;7517;48.400;11.770;2022-09-25T02:51:13;17.70;80.10
14850;DHT22;7517;48.400;11.770;2022-09-25T02:53:51;17.70;80.00
14850;DHT22;7517;48.400;11.770;2022-09-25T02:56:29;17.70;80.10
14850;DHT22;7517;48.400;11.770;2022-09-25T02:59:03;17.70;80.10
14850;DHT22;7517;48.400;11.770;2022-09-25T03:01:37;17.70;80.10
14850;DHT22;7517;48.400;11.770;2022-09-25T03:04:10;17.70;80.20
14850;DHT22;7517;48.400;11.770;2022-09-25T03:06:38;17.70;80.10
14850;DHT22;7517;48.400;11.770;2022-09-25T03:09:08;17.60;80.10
14850;DHT22;7517;48.400;11.770;2022-09-25T03:11:37;17.60;80.10
14850;DHT22;7517;48.400;11.770;2022-09-25T03:14:06;17.60;80.00
14850;DHT22;7517;48.400;11.770;2022-09-25T03:16:37;17.60;80.10
14850;DHT22;7517;48.400;11.770;2022-09-25T03:19:12;17.60;80.10
14850;DHT22;7517;48.400;11.770;2022-09-25T03:21:39;17.60;80.10
14850;DHT22;7517;48.400;11.770;2022-09-25T03:24:07;17.60;80.10
14850;DHT22;7517;48.400;11.770;2022-09-25T03:26:35;17.60;80.20
14850;DHT22;7517;48.400;11.770;2022-09-25T03:29:02;17.60;80.20
14850;DHT22;7517;48.400;11.770;2022-09-25T03:31:30;17.60;80.20
14850;DHT22;7517;48.400;11.770;2022-09-25T03:33:58;17.60;80.30
14850;DHT22;7517;48.400;11.770;2022-09-25T03:36:29;17.60;80.30
14850;DHT22;7517;48.400;11.770;2022-09-25T03:38:57;17.60;80.20
14850;DHT22;7517;48.400;11.770;2022-09-25T03:41:26;17.60;80.20
14850;DHT22;7517;48.400;11.770;2022-09-25T03:43:55;17.60;80.10
14850;DHT22;7517;48.400;11.770;2022-09-25T03:46:26;17.60;80.10
14850;DHT22;7517;48.400;11.770;2022-09-25T03:48:55;17.60;80.10
14850;DHT22;7517;48.400;11.770;2022-09-25T03:51:23;17.60;80.10
14850;DHT22;7517;48.400;11.770;2022-09-25T03:53:53;17.60;80.10
14850;DHT22;7517;48.400;11.770;2022-09-25T03:56:22;17.60;80.10
14850;DHT22;7517;48.400;11.770;2022-09-25T03:58:51;17.60;80.10
14850;DHT22;7517;48.400;11.770;2022-09-25T04:01:19;17.60;80.10
14850;DHT22;7517;48.400;11.770;2022-09-25T04:03:47;17.60;80.10
14850;DHT22;7517;48.400;11.770;2022-09-25T04:06:17;17.60;80.10
14850;DHT22;7517;48.400;11.770;2022-09-25T04:08:46;17.60;80.10
14850;DHT22;7517;48.400;11.770;2022-09-25T04:11:16;17.50;80.00
14850;DHT22;7517;48.400;11.770;2022-09-25T04:13:45;17.50;80.00
14850;DHT22;7517;48.400;11.770;2022-09-25T04:16:14;17.50;80.70
14850;DHT22;7517;48.400;11.770;2022-09-25T04:18:43;17.50;80.00
14850;DHT22;7517;48.400;11.770;2022-09-25T04:21:12;17.50;80.10
14850;DHT22;7517;48.400;11.770;2022-09-25T04:23:41;17.50;80.10
14850;DHT22;7517;48.400;11.770;2022-09-25T04:26:30;17.50;80.10
14850;DHT22;7517;48.400;11.770;2022-09-25T04:28:57;17.50;80.20
14850;DHT22;7517;48.400;11.770;2022-09-25T04:31:26;17.50;80.10
14850;DHT22;7517;48.400;11.770;2022-09-25T04:33:53;17.50;80.10
14850;DHT22;7517;48.400;11.770;2022-09-25T04:36:19;17.50;80.10
14850;DHT22;7517;48.400;11.770;2022-09-25T04:38:47;17.50;80.20
14850;DHT22;7517;48.400;11.770;2022-09-25T04:41:14;17.50;80.20
14850;DHT22;7517;48.400;11.770;2022-09-25T04:43:45;17.50;80.20
14850;DHT22;7517;48.400;11.770;2022-09-25T04:46:13;17.50;80.30
14850;DHT22;7517;48.400;11.770;2022-09-25T04:48:43;17.50;80.10
14850;DHT22;7517;48.400;11.770;2022-09-25T04:51:11;17.50;80.10
14850;DHT22;7517;48.400;11.770;2022-09-25T04:53:39;17.50;80.10
14850;DHT22;7517;48.400;11.770;2022-09-25T04:56:07;17.50;80.10
14850;DHT22;7517;48.400;11.770;2022-09-25T04:58:36;17.50;80.30
14850;DHT22;7517;48.400;11.770;2022-09-25T05:01:06;17.50;80.20
14850;DHT22;7517;48.400;11.770;2022-09-25T05:03:35;17.50;80.20
14850;DHT22;7517;48.400;11.770;2022-09-25T05:06:02;17.50;80.30
14850;DHT22;7517;48.400;11.770;2022-09-25T05:08:29;17.50;80.30
14850;DHT22;7517;48.400;11.770;2022-09-25T05:10:56;17.50;80.30
14850;DHT22;7517;48.400;11.770;2022-09-25T05:13:23;17.50;80.30
14850;DHT22;7517;48.400;11.770;2022-09-25T05:15:53;17.50;80.20
14850;DHT22;7517;48.400;11.770;2022-09-25T05:18:23;17.50;80.20
14850;DHT22;7517;48.400;11.770;2022-09-25T05:20:51;17.50;80.30
14850;DHT22;7517;48.400;11.770;2022-09-25T05:23:19;17.50;80.30
14850;DHT22;7517;48.400;11.770;2022-09-25T05:25:50;17.50;80.30
14850;DHT22;7517;48.400;11.770;2022-09-25T05:28:18;17.50;80.40
14850;DHT22;7517;48.400;11.770;2022-09-25T05:30:45;17.50;80.40
14850;DHT22;7517;48.400;11.770;2022-09-25T05:33:12;17.50;80.40
14850;DHT22;7517;48.400;11.770;2022-09-25T05:35:40;17.50;81.00
14850;DHT22;7517;48.400;11.770;2022-09-25T05:38:08;17.50;80.10
14850;DHT22;7517;48.400;11.770;2022-09-25T05:40:35;17.50;80.10
14850;DHT22;7517;48.400;11.770;2022-09-25T05:43:03;17.50;80.20
14850;DHT22;7517;48.400;11.770;2022-09-25T05:45:31;17.50;80.20
14850;DHT22;7517;48.400;11.770;2022-09-25T05:48:02;17.50;80.20
14850;DHT22;7517;48.400;11.770;2022-09-25T05:50:31;17.50;80.30
14850;DHT22;7517;48.400;11.770;2022-09-25T05:53:01;17.50;80.30
14850;DHT22;7517;48.400;11.770;2022-09-25T05:55:30;17.50;80.40
14850;DHT22;7517;48.400;11.770;2022-09-25T05:58:00;17.50;80.20
14850;DHT22;7517;48.400;11.770;2022-09-25T06:00:28;17.50;80.30
14850;DHT22;7517;48.400;11.770;2022-09-25T06:02:57;17.50;80.30
14850;DHT22;7517;48.400;11.770;2022-09-25T06:05:24;17.50;80.20
14850;DHT22;7517;48.400;11.770;2022-09-25T06:07:52;17.50;80.20
14850;DHT22;7517;48.400;11.770;2022-09-25T06:10:20;17.50;80.80
14850;DHT22;7517;48.400;11.770;2022-09-25T06:12:51;17.50;80.20
14850;DHT22;7517;48.400;11.770;2022-09-25T06:15:23;17.50;80.20
14850;DHT22;7517;48.400;11.770;2022-09-25T06:17:50;17.60;80.30
14850;DHT22;7517;48.400;11.770;2022-09-25T06:20:17;17.60;80.50
14850;DHT22;7517;48.400;11.770;2022-09-25T06:22:51;17.60;80.50
14850;DHT22;7517;48.400;11.770;2022-09-25T06:25:20;17.60;80.60
14850;DHT22;7517;48.400;11.770;2022-09-25T06:27:51;17.60;80.90
14850;DHT22;7517;48.400;11.770;2022-09-25T06:30:19;17.60;80.70
14850;DHT22;7517;48.400;11.770;2022-09-25T06:32:47;17.60;80.70
14850;DHT22;7517;48.400;11.770;2022-09-25T06:35:16;17.60;80.80
14850;DHT22;7517;48.400;11.770;2022-09-25T06:37:43;17.60;80.70
14850;DHT22;7517;48.400;11.770;2022-09-25T06:40:10;17.60;80.60
14850;DHT22;7517;48.400;11.770;2022-09-25T06:42:38;17.60;80.60
14850;DHT22;7517;48.400;11.770;2022-09-25T06:45:06;17.60;80.60
14850;DHT22;7517;48.400;11.770;2022-09-25T06:47:36;17.70;80.60
14850;DHT22;7517;48.400;11.770;2022-09-25T06:50:03;17.70;80.50
14850;DHT22;7517;48.400;11.770;2022-09-25T06:52:30;17.70;80.40
14850;DHT22;7517;48.400;11.770;2022-09-25T06:54:58;17.70;81.10
14850;DHT22;7517;48.400;11.770;2022-09-25T06:57:25;17.60;80.90
14850;DHT22;7517;48.400;11.770;2022-09-25T06:59:54;17.70;80.30
14850;DHT22;7517;48.400;11.770;2022-09-25T07:02:21;17.60;80.00
14850;DHT22;7517;48.400;11.770;2022-09-25T07:05:06;17.60;79.90
14850;DHT22;7517;48.400;11.770;2022-09-25T07:07:33;17.60;79.90
14850;DHT22;7517;48.400;11.770;2022-09-25T07:10:00;17.60;80.00
14850;DHT22;7517;48.400;11.770;2022-09-25T07:12:28;17.60;80.00
14850;DHT22;7517;48.400;11.770;2022-09-25T07:14:58;17.60;80.10
14850;DHT22;7517;48.400;11.770;2022-09-25T07:17:25;17.60;80.10
14850;DHT22;7517;48.400;11.770;2022-09-25T07:19:52;17.60;80.00
14850;DHT22;7517;48.400;11.770;2022-09-25T07:22:19;17.60;80.00
14850;DHT22;7517;48.400;11.770;2022-09-25T07:24:46;17.60;80.10
14850;DHT22;7517;48.400;11.770;2022-09-25T07:27:13;17.60;80.10
14850;DHT22;7517;48.400;11.770;2022-09-25T07:29:41;17.60;80.20
14850;DHT22;7517;48.400;11.770;2022-09-25T07:32:09;17.60;80.20
14850;DHT22;7517;48.400;11.770;2022-09-25T07:34:36;17.60;80.20
14850;DHT22;7517;48.400;11.770;2022-09-25T07:37:03;17.60;80.20
14850;DHT22;7517;48.400;11.770;2022-09-25T07:39:30;17.60;80.10
14850;DHT22;7517;48.400;11.770;2022-09-25T07:41:57;17.60;80.70
14850;DHT22;7517;48.400;11.770;2022-09-25T07:44:24;17.60;80.00
14850;DHT22;7517;48.400;11.770;2022-09-25T07:46:51;17.60;80.00
14850;DHT22;7517;48.400;11.770;2022-09-25T07:49:20;17.60;79.90
14850;DHT22;7517;48.400;11.770;2022-09-25T07:51:47;17.60;80.00
14850;DHT22;7517;48.400;11.770;2022-09-25T07:54:14;17.60;80.10
14850;DHT22;7517;48.400;11.770;2022-09-25T07:56:41;17.60;80.20
14850;DHT22;7517;48.400;11.770;2022-09-25T07:59:08;17.60;80.30
14850;DHT22;7517;48.400;11.770;2022-09-25T08:01:35;17.70;80.40
14850;DHT22;7517;48.400;11.770;2022-09-25T08:04:03;17.70;80.40
14850;DHT22;7517;48.400;11.770;2022-09-25T08:06:33;17.60;80.40
14850;DHT22;7517;48.400;11.770;2022-09-25T08:09:01;17.70;80.50
14850;DHT22;7517;48.400;11.770;2022-09-25T08:11:28;17.70;80.40
14850;DHT22;7517;48.400;11.770;2022-09-25T08:13:55;17.70;80.50
14850;DHT22;7517;48.400;11.770;2022-09-25T08:16:23;17.70;80.50
14850;DHT22;7517;48.400;11.770;2022-09-25T08:18:51;17.80;80.70
14850;DHT22;7517;48.400;11.770;2022-09-25T08:21:19;17.80;80.60
14850;DHT22;7517;48.400;11.770;2022-09-25T08:23:50;17.90;80.60
14850;DHT22;7517;48.400;11.770;2022-09-25T08:26:20;17.90;80.50
14850;DHT22;7517;48.400;11.770;2022-09-25T08:28:48;17.90;80.40
14850;DHT22;7517;48.400;11.770;2022-09-25T08:31:16;18.00;80.30
14850;DHT22;7517;48.400;11.770;2022-09-25T08:33:44;18.00;81.00
14850;DHT22;7517;48.400;11.770;2022-09-25T08:36:12;18.00;80.20
14850;DHT22;7517;48.400;11.770;2022-09-25T08:38:39;18.10;80.10
14850;DHT22;7517;48.400;11.770;2022-09-25T08:41:11;18.10;80.00
14850;DHT22;7517;48.400;11.770;2022-09-25T08:43:44;18.10;79.90
14850;DHT22;7517;48.400;11.770;2022-09-25T08:46:24;18.10;79.80
14850;DHT22;7517;48.400;11.770;2022-09-25T08:49:13;18.20;79.90
14850;DHT22;7517;48.400;11.770;2022-09-25T08:51:47;18.20;79.90
14850;DHT22;7517;48.400;11.770;2022-09-25T08:54:19;18.20;80.00
14850;DHT22;7517;48.400;11.770;2022-09-25T08:56:51;18.20;80.00
14850;DHT22;7517;48.400;11.770;2022-09-25T08:59:25;18.20;79.80
14850;DHT22;7517;48.400;11.770;2022-09-25T09:01:57;18.30;79.80
14850;DHT22;7517;48.400;11.770;2022-09-25T09:04:29;18.30;79.80
14850;DHT22;7517;48.400;11.770;2022-09-25T09:07:03;18.30;79.80
14850;DHT22;7517;48.400;11.770;2022-09-25T09:09:36;18.30;79.70
14850;DHT22;7517;48.400;11.770;2022-09-25T09:12:12;18.40;79.70
14850;DHT22;7517;48.400;11.770;2022-09-25T09:14:44;18.40;79.80
14850;DHT22;7517;48.400;11.770;2022-09-25T09:17:16;18.40;79.70
14850;DHT22;7517;48.400;11.770;2022-09-25T09:19:51;18.40;79.80
14850;DHT22;7517;48.400;11.770;2022-09-25T09:22:28;18.50;79.70
14850;DHT22;7517;48.400;11.770;2022-09-25T09:25:04;18.50;79.70
14850;DHT22;7517;48.400;11.770;2022-09-25T09:27:56;18.50;79.60
14850;DHT22;7517;48.400;11.770;2022-09-25T09:30:36;18.60;79.40
14850;DHT22;7517;48.400;11.770;2022-09-25T09:33:18;18.60;79.40
14850;DHT22;7517;48.400;11.770;2022-09-25T09:36:04;18.60;79.60
14850;DHT22;7517;48.400;11.770;2022-09-25T09:38:46;18.70;79.70
14850;DHT22;7517;48.400;11.770;2022-09-25T09:41:38;18.70;79.40
14850;DHT22;7517;48.400;11.770;2022-09-25T09:44:23;18.80;79.40
14850;DHT22;7517;48.400;11.770;2022-09-25T09:47:03;18.80;79.10
14850;DHT22;7517;48.400;11.770;2022-09-25T09:49:50;18.90;78.90
14850;DHT22;7517;48.400;11.770;2022-09-25T09:52:29;18.90;78.80
14850;DHT22;7517;48.400;11.770;2022-09-25T09:55:14;18.90;78.80
14850;DHT22;7517;48.400;11.770;2022-09-25T09:57:49;19.00;78.90
14850;DHT22;7517;48.400;11.770;2022-09-25T10:00:21;19.00;78.90
14850;DHT22;7517;48.400;11.770;2022-09-25T10:02:53;19.00;78.70
14850;DHT22;7517;48.400;11.770;2022-09-25T10:05:32;19.00;78.30
14850;DHT22;7517;48.400;11.770;2022-09-25T10:08:03;19.10;78.40
14850;DHT22;7517;48.400;11.770;2022-09-25T10:10:34;19.10;78.30
14850;DHT22;7517;48.400;11.770;2022-09-25T10:13:05;19.10;78.20
14850;DHT22;7517;48.400;11.770;2022-09-25T10:15:45;19.20;78.20
14850;DHT22;7517;48.400;11.770;2022-09-25T10:18:17;19.20;78.30
14850;DHT22;7517;48.400;11.770;2022-09-25T10:20:49;19.20;78.40
14850;DHT22;7517;48.400;11.770;2022-09-25T10:23:31;19.20;78.40
14850;DHT22;7517;48.400;11.770;2022-09-25T10:26:01;19.30;78.30
14850;DHT22;7517;48.400;11.770;2022-09-25T10:28:31;19.30;78.30
14850;DHT22;7517;48.400;11.770;2022-09-25T10:31:05;19.30;78.40
14850;DHT22;7517;48.400;11.770;2022-09-25T10:33:35;19.40;78.30
14850;DHT22;7517;48.400;11.770;2022-09-25T10:36:03;19.40;78.00
14850;DHT22;7517;48.400;11.770;2022-09-25T10:38:36;19.40;78.00
14850;DHT22;7517;48.400;11.770;2022-09-25T10:41:09;19.40;77.90
14850;DHT22;7517;48.400;11.770;2022-09-25T10:43:50;19.40;77.80
14850;DHT22;7517;48.400;11.770;2022-09-25T10:46:28;19.40;77.40
14850;DHT22;7517;48.400;11.770;2022-09-25T10:49:18;19.50;77.40
14850;DHT22;7517;48.400;11.770;2022-09-25T10:52:04;19.50;77.50
14850;DHT22;7517;48.400;11.770;2022-09-25T10:54:33;19.50;77.60
14850;DHT22;7517;48.400;11.770;2022-09-25T10:57:13;19.50;77.50
14850;DHT22;7517;48.400;11.770;2022-09-25T10:59:51;19.50;77.30
14850;DHT22;7517;48.400;11.770;2022-09-25T11:02:31;19.50;77.50
14850;DHT22;7517;48.400;11.770;2022-09-25T11:05:05;19.60;77.40
14850;DHT22;7517;48.400;11.770;2022-09-25T11:07:51;19.60;77.60
14850;DHT22;7517;48.400;11.770;2022-09-25T11:10:28;19.70;77.50
14850;DHT22;7517;48.400;11.770;2022-09-25T11:13:02;19.70;77.50
14850;DHT22;7517;48.400;11.770;2022-09-25T11:15:50;19.80;77.30
14850;DHT22;7517;48.400;11.770;2022-09-25T11:18:40;19.80;77.20
14850;DHT22;7517;48.400;11.770;2022-09-25T11:21:18;19.90;76.30
14850;DHT22;7517;48.400;11.770;2022-09-25T11:24:06;19.90;77.00
14850;DHT22;7517;48.400;11.770;2022-09-25T11:26:43;20.00;77.10
14850;DHT22;7517;48.400;11.770;2022-09-25T11:29:21;20.00;77.00
14850;DHT22;7517;48.400;11.770;2022-09-25T11:31:57;20.10;77.00
14850;DHT22;7517;48.400;11.770;2022-09-25T11:37:59;20.30;75.80
14850;DHT22;7517;48.400;11.770;2022-09-25T11:40:42;20.30;76.00
14850;DHT22;7517;48.400;11.770;2022-09-25T11:43:44;20.40;75.60
14850;DHT22;7517;48.400;11.770;2022-09-25T11:46:23;20.40;75.90
14850;DHT22;7517;48.400;11.770;2022-09-25T11:49:05;20.50;75.70
14850;DHT22;7517;48.400;11.770;2022-09-25T11:52:06;20.50;75.30
14850;DHT22;7517;48.400;11.770;2022-09-25T11:55:09;20.60;74.80
14850;DHT22;7517;48.400;11.770;2022-09-25T11:57:56;20.60;74.70
14850;DHT22;7517;48.400;11.770;2022-09-25T12:00:37;20.70;74.70
14850;DHT22;7517;48.400;11.770;2022-09-25T12:03:31;20.70;75.20
14850;DHT22;7517;48.400;11.770;2022-09-25T12:06:28;20.80;74.80
14850;DHT22;7517;48.400;11.770;2022-09-25T12:09:48;20.80;74.00
14850;DHT22;7517;48.400;11.770;2022-09-25T12:12:32;20.80;73.10
14850;DHT22;7517;48.400;11.770;2022-09-25T12:15:19;20.80;73.10
14850;DHT22;7517;48.400;11.770;2022-09-25T12:18:01;20.80;73.20
14850;DHT22;7517;48.400;11.770;2022-09-25T12:20:39;20.80;73.40
14850;DHT22;7517;48.400;11.770;2022-09-25T12:23:22;20.80;72.60
14850;DHT22;7517;48.400;11.770;2022-09-25T12:26:07;20.80;72.50
14850;DHT22;7517;48.400;11.770;2022-09-25T12:28:53;20.80;72.10
14850;DHT22;7517;48.400;11.770;2022-09-25T12:31:44;20.70;72.10
14850;DHT22;7517;48.400;11.770;2022-09-25T12:34:33;20.70;71.90
14850;DHT22;7517;48.400;11.770;2022-09-25T12:37:27;20.70;72.00
14850;DHT22;7517;48.400;11.770;2022-09-25T12:40:03;20.70;71.50
14850;DHT22;7517;48.400;11.770;2022-09-25T12:42:46;20.60;71.70
14850;DHT22;7517;48.400;11.770;2022-09-25T12:45:24;20.70;71.90
14850;DHT22;7517;48.400;11.770;2022-09-25T12:48:07;20.70;71.60
14850;DHT22;7517;48.400;11.770;2022-09-25T12:50:45;20.70;71.30
14850;DHT22;7517;48.400;11.770;2022-09-25T12:53:23;20.70;71.50
14850;DHT22;7517;48.400;11.770;2022-09-25T12:55:58;20.70;71.30
14850;DHT22;7517;48.400;11.770;2022-09-25T12:58:56;20.70;71.60
14850;DHT22;7517;48.400;11.770;2022-09-25T13:01:39;20.70;71.10
14850;DHT22;7517;48.400;11.770;2022-09-25T13:04:34;20.70;71.10
14850;DHT22;7517;48.400;11.770;2022-09-25T13:07:21;20.80;70.60
14850;DHT22;7517;48.400;11.770;2022-09-25T13:09:56;20.80;71.40
14850;DHT22;7517;48.400;11.770;2022-09-25T13:12:30;20.80;70.40
14850;DHT22;7517;48.400;11.770;2022-09-25T13:15:14;20.80;69.10
14850;DHT22;7517;48.400;11.770;2022-09-25T13:17:44;20.80;69.40
14850;DHT22;7517;48.400;11.770;2022-09-25T13:20:39;20.80;69.50
14850;DHT22;7517;48.400;11.770;2022-09-25T13:23:14;20.80;68.50
14850;DHT22;7517;48.400;11.770;2022-09-25T13:25:44;20.80;69.20
14850;DHT22;7517;48.400;11.770;2022-09-25T13:28:20;20.80;68.80
14850;DHT22;7517;48.400;11.770;2022-09-25T13:31:04;20.80;68.70
14850;DHT22;7517;48.400;11.770;2022-09-25T13:33:41;20.80;68.40
14850;DHT22;7517;48.400;11.770;2022-09-25T13:36:28;20.80;69.00
14850;DHT22;7517;48.400;11.770;2022-09-25T13:39:01;20.90;69.30
14850;DHT22;7517;48.400;11.770;2022-09-25T13:41:53;20.90;69.30
14850;DHT22;7517;48.400;11.770;2022-09-25T13:47:43;20.80;68.90
14850;DHT22;7517;48.400;11.770;2022-09-25T13:50:36;20.80;69.20
14850;DHT22;7517;48.400;11.770;2022-09-25T13:53:26;20.80;69.10
14850;DHT22;7517;48.400;11.770;2022-09-25T13:56:15;20.70;68.90
14850;DHT22;7517;48.400;11.770;2022-09-25T14:02:42;20.70;69.00
14850;DHT22;7517;48.400;11.770;2022-09-25T14:05:14;20.60;69.30
14850;DHT22;7517;48.400;11.770;2022-09-25T14:07:48;20.60;69.50
14850;DHT22;7517;48.400;11.770;2022-09-25T14:10:21;20.50;69.50
14850;DHT22;7517;48.400;11.770;2022-09-25T14:12:50;20.50;69.50
14850;DHT22;7517;48.400;11.770;2022-09-25T14:15:22;20.50;69.70
14850;DHT22;7517;48.400;11.770;2022-09-25T14:17:56;20.50;69.60
14850;DHT22;7517;48.400;11.770;2022-09-25T14:20:31;20.40;69.40
14850;DHT22;7517;48.400;11.770;2022-09-25T14:23:03;20.40;69.50
14850;DHT22;7517;48.400;11.770;2022-09-25T14:25:37;20.40;69.70
14850;DHT22;7517;48.400;11.770;2022-09-25T14:28:18;20.40;69.90
14850;DHT22;7517;48.400;11.770;2022-09-25T14:30:50;20.40;69.90
14850;DHT22;7517;48.400;11.770;2022-09-25T14:33:40;20.30;70.00
14850;DHT22;7517;48.400;11.770;2022-09-25T14:36:27;20.40;69.70
14850;DHT22;7517;48.400;11.770;2022-09-25T14:39:23;20.30;69.90
14850;DHT22;7517;48.400;11.770;2022-09-25T14:42:22;20.30;69.70
14850;DHT22;7517;48.400;11.770;2022-09-25T14:45:19;20.30;69.30
14850;DHT22;7517;48.400;11.770;2022-09-25T14:47:58;20.30;69.70
14850;DHT22;7517;48.400;11.770;2022-09-25T14:50:31;20.30;69.90
14850;DHT22;7517;48.400;11.770;2022-09-25T14:53:03;20.30;70.00
14850;DHT22;7517;48.400;11.770;2022-09-25T14:55:38;20.30;70.10
14850;DHT22;7517;48.400;11.770;2022-09-25T14:58:14;20.30;70.20
14850;DHT22;7517;48.400;11.770;2022-09-25T15:00:46;20.30;70.50
14850;DHT22;7517;48.400;11.770;2022-09-25T15:03:19;20.30;70.20
14850;DHT22;7517;48.400;11.770;2022-09-25T15:05:52;20.30;70.00
14850;DHT22;7517;48.400;11.770;2022-09-25T15:08:22;20.30;70.00
14850;DHT22;7517;48.400;11.770;2022-09-25T15:11:07;20.30;70.30
14850;DHT22;7517;48.400;11.770;2022-09-25T15:13:36;20.30;70.10
14850;DHT22;7517;48.400;11.770;2022-09-25T15:16:05;20.30;70.10
14850;DHT22;7517;48.400;11.770;2022-09-25T15:18:56;20.30;70.00
14850;DHT22;7517;48.400;11.770;2022-09-25T15:21:33;20.40;69.70
14850;DHT22;7517;48.400;11.770;2022-09-25T15:24:03;20.40;69.70
14850;DHT22;7517;48.400;11.770;2022-09-25T15:26:33;20.40;69.70
14850;DHT22;7517;48.400;11.770;2022-09-25T15:29:12;20.50;69.50
14850;DHT22;7517;48.400;11.770;2022-09-25T15:31:42;20.50;68.60
14850;DHT22;7517;48.400;11.770;2022-09-25T15:34:20;20.50;68.40
14850;DHT22;7517;48.400;11.770;2022-09-25T15:36:51;20.50;68.00
14850;DHT22;7517;48.400;11.770;2022-09-25T15:39:22;20.60;68.40
14850;DHT22;7517;48.400;11.770;2022-09-25T15:41:51;20.60;67.90
14850;DHT22;7517;48.400;11.770;2022-09-25T15:44:19;20.60;67.80
14850;DHT22;7517;48.400;11.770;2022-09-25T15:46:50;20.60;67.60
14850;DHT22;7517;48.400;11.770;2022-09-25T15:49:23;20.60;67.20
14850;DHT22;7517;48.400;11.770;2022-09-25T15:51:57;20.60;67.20
14850;DHT22;7517;48.400;11.770;2022-09-25T15:54:36;20.60;67.20
14850;DHT22;7517;48.400;11.770;2022-09-25T15:57:10;20.50;67.30
14850;DHT22;7517;48.400;11.770;2022-09-25T15:59:42;20.50;67.20
14850;DHT22;7517;48.400;11.770;2022-09-25T16:02:31;20.40;66.90
14850;DHT22;7517;48.400;11.770;2022-09-25T16:05:29;20.40;66.90
14850;DHT22;7517;48.400;11.770;2022-09-25T16:08:26;20.30;66.80
14850;DHT22;7517;48.400;11.770;2022-09-25T16:11:18;20.30;66.60
14850;DHT22;7517;48.400;11.770;2022-09-25T16:13:49;20.20;66.90
14850;DHT22;7517;48.400;11.770;2022-09-25T16:16:20;20.20;68.10
14850;DHT22;7517;48.400;11.770;2022-09-25T16:18:51;20.10;67.70
14850;DHT22;7517;48.400;11.770;2022-09-25T16:21:24;20.10;68.60
14850;DHT22;7517;48.400;11.770;2022-09-25T16:23:57;20.00;68.00
14850;DHT22;7517;48.400;11.770;2022-09-25T16:26:35;20.00;68.30